createdAt,value
2022-10-29T00:00:56.339Z,100568.16
2022-10-29T00:03:23.887Z,100584.03
2022-10-29T00:05:57.550Z,100582.69
2022-10-29T00:08:24.781Z,100572.69
2022-10-29T00:10:51.567Z,100553.13
2022-10-29T00:13:18.307Z,100553.22
2022-10-29T00:15:44.946Z,100561.59
2022-10-29T00:18:11.585Z,100563.25
2022-10-29T00:20:38.203Z,100539.84
2022-10-29T00:23:04.875Z,100576.75
2022-10-29T00:25:31.551Z,100556.72
2022-10-29T00:27:58.241Z,100551.31
2022-10-29T00:30:24.855Z,100575.66
2022-10-29T00:32:51.534Z,100563.22
2022-10-29T00:35:18.272Z,100571.50
2022-10-29T00:37:44.922Z,100554.03
2022-10-29T00:40:12.189Z,100582.69
2022-10-29T00:42:38.805Z,100554.09
2022-10-29T00:45:06.178Z,100579.75
2022-10-29T00:47:36.919Z,100564.00
2022-10-29T00:50:09.380Z,100581.09
2022-10-29T00:52:40.662Z,100567.09
2022-10-29T00:55:10.598Z,100589.50
2022-10-29T00:57:41.532Z,100587.72
2022-10-29T01:00:08.981Z,100589.75
2022-10-29T01:02:38.111Z,100584.59
2022-10-29T01:05:06.049Z,100560.78
2022-10-29T01:07:32.940Z,100569.59
2022-10-29T01:09:59.688Z,100558.84
2022-10-29T01:12:36.957Z,100589.34
2022-10-29T01:15:28.388Z,100583.53
2022-10-29T01:18:16.426Z,100585.03
2022-10-29T01:21:13.331Z,100587.31
2022-10-29T01:23:42.747Z,100580.53
2022-10-29T01:26:27.596Z,100575.22
2022-10-29T01:29:09.553Z,100577.88
2022-10-29T01:31:50.960Z,100583.34
2022-10-29T01:34:33.570Z,100580.97
2022-10-29T01:37:08.029Z,100561.78
2022-10-29T01:39:42.075Z,100571.06
2022-10-29T01:42:15.215Z,100574.31
2022-10-29T01:44:51.193Z,100549.63
2022-10-29T01:47:22.801Z,100560.94
2022-10-29T01:49:57.789Z,100553.78
2022-10-29T01:52:27.383Z,100549.78
2022-10-29T01:54:54.521Z,100541.56
2022-10-29T01:57:34.077Z,100554.22
2022-10-29T02:00:07.002Z,100549.72
2022-10-29T02:03:02.484Z,100553.22
2022-10-29T02:05:53.308Z,100560.38
2022-10-29T02:08:53.202Z,100554.22
2022-10-29T02:11:29.769Z,100532.84
2022-10-29T02:14:07.756Z,100547.59
2022-10-29T02:16:34.524Z,100555.13
2022-10-29T02:19:01.373Z,100549.31
2022-10-29T02:21:28.110Z,100541.69
2022-10-29T02:23:54.788Z,100548.22
2022-10-29T02:26:21.819Z,100554.22
2022-10-29T02:28:48.517Z,100552.44
2022-10-29T02:31:15.503Z,100544.16
2022-10-29T02:33:42.116Z,100550.47
2022-10-29T02:36:09.111Z,100542.50
2022-10-29T02:38:35.748Z,100531.78
2022-10-29T02:41:02.376Z,100500.47
2022-10-29T02:43:28.986Z,100536.38
2022-10-29T02:46:15.954Z,100537.38
2022-10-29T02:48:43.048Z,100541.84
2022-10-29T02:51:10.251Z,100532.28
2022-10-29T02:53:37.200Z,100540.56
2022-10-29T02:56:04.769Z,100507.34
2022-10-29T02:58:31.909Z,100540.09
2022-10-29T03:00:58.545Z,100519.13
2022-10-29T03:03:25.284Z,100519.09
2022-10-29T03:05:52.555Z,100544.75
2022-10-29T03:08:19.516Z,100538.25
2022-10-29T03:10:46.223Z,100539.75
2022-10-29T03:13:13.041Z,100540.31
2022-10-29T03:15:39.697Z,100536.94
2022-10-29T03:18:06.321Z,100533.44
2022-10-29T03:20:32.987Z,100517.25
2022-10-29T03:22:59.600Z,100531.44
2022-10-29T03:25:26.628Z,100501.38
2022-10-29T03:27:53.448Z,100530.69
2022-10-29T03:30:20.242Z,100532.50
2022-10-29T03:32:48.012Z,100530.53
2022-10-29T03:35:16.097Z,100518.47
2022-10-29T03:37:43.094Z,100523.13
2022-10-29T03:40:10.139Z,100528.25
2022-10-29T03:42:38.329Z,100533.72
2022-10-29T03:45:05.215Z,100484.50
2022-10-29T03:47:33.487Z,100523.56
2022-10-29T03:50:00.286Z,100522.13
2022-10-29T03:52:27.075Z,100532.25
2022-10-29T03:54:53.771Z,100523.78
2022-10-29T03:57:20.456Z,100532.69
2022-10-29T03:59:51.508Z,100533.63
2022-10-29T04:02:19.649Z,100538.09
2022-10-29T04:04:46.459Z,100537.09
2022-10-29T04:07:13.388Z,100540.03
2022-10-29T04:09:40.132Z,100539.19
2022-10-29T04:12:07.404Z,100532.59
2022-10-29T04:14:34.971Z,100522.16
2022-10-29T04:17:01.738Z,100525.78
2022-10-29T04:19:28.436Z,100524.13
2022-10-29T04:30:15.212Z,100512.03
2022-10-29T04:32:41.829Z,100543.13
2022-10-29T04:35:08.632Z,100537.09
2022-10-29T04:37:35.264Z,100537.09
2022-10-29T04:40:01.926Z,100541.44
2022-10-29T04:42:28.616Z,100545.41
2022-10-29T04:44:55.248Z,100519.50
2022-10-29T04:47:21.915Z,100516.91
2022-10-29T04:49:48.528Z,100531.03
2022-10-29T04:52:15.207Z,100543.41
2022-10-29T04:54:41.829Z,100540.13
2022-10-29T04:57:08.506Z,100529.69
2022-10-29T04:59:35.134Z,100546.75
2022-10-29T05:02:01.748Z,100548.22
2022-10-29T05:04:29.457Z,100544.41
2022-10-29T05:06:56.139Z,100526.41
2022-10-29T05:09:22.785Z,100558.06
2022-10-29T05:11:49.568Z,100553.75
2022-10-29T05:14:16.192Z,100548.28
2022-10-29T05:16:42.873Z,100542.13
2022-10-29T05:19:09.616Z,100549.13
2022-10-29T05:21:36.235Z,100540.81
2022-10-29T05:24:02.912Z,100534.81
2022-10-29T05:26:32.574Z,100545.34
2022-10-29T05:28:59.288Z,100539.44
2022-10-29T05:31:26.003Z,100540.41
2022-10-29T05:33:55.573Z,100532.53
2022-10-29T05:36:22.896Z,100504.06
2022-10-29T05:38:49.561Z,100497.75
2022-10-29T05:41:16.365Z,100528.19
2022-10-29T05:43:43.174Z,100507.69
2022-10-29T05:46:09.768Z,100526.16
2022-10-29T05:48:36.453Z,100537.03
2022-10-29T05:51:04.426Z,100529.28
2022-10-29T05:53:31.196Z,100501.88
2022-10-29T05:55:59.029Z,100521.97
2022-10-29T05:58:25.736Z,100505.59
2022-10-29T06:00:52.387Z,100523.31
2022-10-29T06:03:21.009Z,100540.56
2022-10-29T06:05:48.998Z,100522.53
2022-10-29T06:08:15.942Z,100534.09
2022-10-29T06:10:42.597Z,100518.41
2022-10-29T06:13:11.505Z,100540.84
2022-10-29T06:15:38.192Z,100536.69
2022-10-29T06:18:04.876Z,100523.41
2022-10-29T06:20:31.528Z,100522.00
2022-10-29T06:22:59.361Z,100523.00
2022-10-29T06:25:26.998Z,100530.88
2022-10-29T06:28:05.594Z,100538.16
2022-10-29T06:30:33.860Z,100518.97
2022-10-29T06:33:00.854Z,100520.59
2022-10-29T06:35:28.342Z,100529.81
2022-10-29T06:37:55.914Z,100532.13
2022-10-29T06:40:23.179Z,100485.00
2022-10-29T06:42:49.974Z,100543.94
2022-10-29T06:45:16.859Z,100533.13
2022-10-29T06:47:45.467Z,100539.44
2022-10-29T06:50:13.778Z,100532.00
2022-10-29T06:52:40.446Z,100499.66
2022-10-29T06:55:08.216Z,100535.53
2022-10-29T06:57:35.441Z,100536.50
2022-10-29T07:00:05.727Z,100532.28
2022-10-29T07:02:35.640Z,100539.09
2022-10-29T07:05:02.416Z,100534.59
2022-10-29T07:07:29.600Z,100529.47
2022-10-29T07:09:56.521Z,100540.06
2022-10-29T07:12:23.231Z,100547.13
2022-10-29T07:14:49.884Z,100539.78
2022-10-29T07:17:16.501Z,100548.34
2022-10-29T07:19:43.199Z,100509.88
2022-10-29T07:22:09.869Z,100547.66
2022-10-29T07:24:36.501Z,100532.84
2022-10-29T07:27:03.192Z,100539.84
2022-10-29T07:29:29.876Z,100513.81
2022-10-29T07:31:56.558Z,100542.94
2022-10-29T07:34:23.206Z,100547.81
2022-10-29T07:36:49.907Z,100545.91
2022-10-29T07:39:17.252Z,100549.53
2022-10-29T07:41:43.970Z,100540.53
2022-10-29T07:44:11.064Z,100540.41
2022-10-29T07:46:37.737Z,100543.91
2022-10-29T07:49:04.528Z,100522.63
2022-10-29T07:51:31.257Z,100525.13
2022-10-29T07:53:57.929Z,100507.00
2022-10-29T07:56:24.659Z,100523.13
2022-10-29T07:58:51.321Z,100531.16
2022-10-29T08:01:18.105Z,100512.22
2022-10-29T08:03:45.014Z,100517.97
2022-10-29T08:06:11.801Z,100502.94
2022-10-29T08:08:38.481Z,100518.19
2022-10-29T08:11:05.645Z,100507.88
2022-10-29T08:13:32.662Z,100515.31
2022-10-29T08:15:59.348Z,100508.91
2022-10-29T08:18:26.444Z,100517.78
2022-10-29T08:20:53.241Z,100514.28
2022-10-29T08:23:19.974Z,100521.69
2022-10-29T08:25:46.727Z,100488.56
2022-10-29T08:28:15.402Z,100518.03
2022-10-29T08:30:44.044Z,100505.88
2022-10-29T08:33:11.265Z,100483.41
2022-10-29T08:35:38.208Z,100512.03
2022-10-29T08:38:04.989Z,100504.31
2022-10-29T08:41:06.877Z,100501.59
2022-10-29T08:43:44.535Z,100491.75
2022-10-29T08:46:25.060Z,100490.69
2022-10-29T08:48:57.466Z,100494.84
2022-10-29T08:51:34.333Z,100484.25
2022-10-29T08:54:25.581Z,100471.50
2022-10-29T08:56:59.320Z,100472.50
2022-10-29T08:59:31.612Z,100471.50
2022-10-29T09:01:58.558Z,100471.25
2022-10-29T09:04:28.736Z,100474.34
2022-10-29T09:07:04.685Z,100447.41
2022-10-29T09:09:35.091Z,100441.13
2022-10-29T09:12:30.354Z,100433.34
2022-10-29T09:15:36.551Z,100434.09
2022-10-29T09:18:35.519Z,100441.09
2022-10-29T09:21:12.068Z,100432.09
2022-10-29T09:24:00.624Z,100457.97
2022-10-29T09:26:38.668Z,100427.16
2022-10-29T09:29:45.970Z,100437.97
2022-10-29T09:32:22.186Z,100423.66
2022-10-29T09:34:56.519Z,100396.28
2022-10-29T09:37:44.018Z,100408.47
2022-10-29T09:40:28.545Z,100398.31
2022-10-29T09:42:55.827Z,100363.34
2022-10-29T09:45:30.201Z,100391.28
2022-10-29T09:48:16.028Z,100377.81
2022-10-29T09:51:00.809Z,100380.47
2022-10-29T09:53:27.605Z,100383.56
2022-10-29T09:55:54.706Z,100363.97
2022-10-29T09:58:27.040Z,100365.28
2022-10-29T10:00:55.114Z,100366.56
2022-10-29T10:03:28.863Z,100389.09
2022-10-29T10:06:10.313Z,100387.63
2022-10-29T10:08:58.786Z,100374.09
2022-10-29T10:11:30.227Z,100351.69
2022-10-29T10:13:58.950Z,100361.50
2022-10-29T10:16:32.461Z,100366.59
2022-10-29T10:18:59.393Z,100369.25
2022-10-29T10:21:29.133Z,100375.34
2022-10-29T10:24:00.140Z,100375.56
2022-10-29T10:26:39.295Z,100361.72
2022-10-29T10:29:19.207Z,100348.47
2022-10-29T10:31:49.757Z,100360.31
2022-10-29T10:34:23.927Z,100359.06
2022-10-29T10:37:07.200Z,100336.81
2022-10-29T10:39:41.788Z,100328.25
2022-10-29T10:42:36.939Z,100306.00
2022-10-29T10:45:14.573Z,100337.25
2022-10-29T10:47:45.916Z,100334.16
2022-10-29T10:50:20.458Z,100348.28
2022-10-29T10:52:47.616Z,100343.50
2022-10-29T10:55:31.329Z,100333.75
2022-10-29T10:58:20.176Z,100305.00
2022-10-29T11:01:23.149Z,100310.50
2022-10-29T11:04:05.183Z,100306.88
2022-10-29T11:06:36.298Z,100309.91
2022-10-29T11:09:02.937Z,100303.75
2022-10-29T11:11:34.764Z,100284.59
2022-10-29T11:14:09.961Z,100252.22
2022-10-29T11:16:47.137Z,100268.72
2022-10-29T11:19:16.751Z,100264.13
2022-10-29T11:21:49.440Z,100253.69
2022-10-29T11:24:39.754Z,100273.72
2022-10-29T11:27:33.759Z,100291.03
2022-10-29T11:30:09.679Z,100279.31
2022-10-29T11:33:06.276Z,100286.97
2022-10-29T11:35:45.792Z,100287.22
2022-10-29T11:38:27.648Z,100276.41
2022-10-29T11:41:07.643Z,100279.66
2022-10-29T11:43:34.425Z,100260.78
2022-10-29T11:46:43.318Z,100268.72
2022-10-29T11:49:25.109Z,100257.19
2022-10-29T11:52:14.972Z,100254.09
2022-10-29T11:54:47.424Z,100252.16
2022-10-29T11:57:20.018Z,100261.91
2022-10-29T12:00:04.848Z,100259.81
2022-10-29T12:02:39.168Z,100261.69
2022-10-29T12:05:08.611Z,100261.94
2022-10-29T12:07:56.509Z,100257.91
2022-10-29T12:10:44.877Z,100253.00
2022-10-29T12:13:28.979Z,100251.34
2022-10-29T12:15:58.719Z,100243.06
2022-10-29T12:18:41.612Z,100214.19
2022-10-29T12:21:08.455Z,100215.25
2022-10-29T12:23:54.710Z,100216.34
2022-10-29T12:26:33.656Z,100205.50
2022-10-29T12:29:18.021Z,100199.22
2022-10-29T12:32:10.611Z,100125.84
2022-10-29T12:35:10.321Z,100204.47
2022-10-29T12:38:15.955Z,100197.63
2022-10-29T12:40:45.145Z,100194.63
2022-10-29T12:43:23.529Z,100193.00
2022-10-29T12:46:20.131Z,100192.38
2022-10-29T12:49:08.044Z,100166.53
2022-10-29T12:51:58.891Z,100191.94
2022-10-29T12:54:28.318Z,100196.34
2022-10-29T12:56:57.286Z,100193.03
2022-10-29T12:59:23.944Z,100182.25
2022-10-29T13:02:12.131Z,100190.47
2022-10-29T13:04:38.600Z,100184.06
2022-10-29T13:07:23.233Z,100186.78
2022-10-29T13:10:27.034Z,100183.69
2022-10-29T13:12:59.600Z,100174.16
2022-10-29T13:15:37.003Z,100146.47
2022-10-29T13:18:27.647Z,100145.09
2022-10-29T13:20:55.440Z,100143.47
2022-10-29T13:23:22.039Z,100135.72
2022-10-29T13:25:55.217Z,100127.78
2022-10-29T13:28:21.813Z,100123.47
2022-10-29T13:30:53.890Z,100123.97
2022-10-29T13:33:23.356Z,100120.75
2022-10-29T13:36:00.427Z,100125.06
2022-10-29T13:39:05.303Z,100124.84
2022-10-29T13:41:44.569Z,100127.03
2022-10-29T13:44:11.285Z,100133.25
2022-10-29T13:47:00.444Z,100140.63
2022-10-29T13:49:38.183Z,100124.53
2022-10-29T13:52:19.033Z,100117.16
2022-10-29T13:55:02.134Z,100090.81
2022-10-29T13:57:51.932Z,100087.78
2022-10-29T14:00:20.373Z,100106.53
2022-10-29T14:03:14.873Z,100104.59
2022-10-29T14:05:47.010Z,100107.03
2022-10-29T14:09:12.001Z,100098.84
2022-10-29T14:11:42.672Z,100093.69
2022-10-29T14:14:29.371Z,100092.25
2022-10-29T14:17:16.527Z,100081.59
2022-10-29T14:19:48.739Z,100083.25
2022-10-29T14:22:39.012Z,100082.38
2022-10-29T14:25:24.207Z,100083.81
2022-10-29T14:28:17.514Z,100081.38
2022-10-29T14:30:46.502Z,100072.00
2022-10-29T14:33:19.346Z,100080.25
2022-10-29T14:35:46.864Z,100063.63
2022-10-29T14:38:14.879Z,100089.16
2022-10-29T14:40:45.414Z,100075.31
2022-10-29T14:43:22.937Z,100063.50
2022-10-29T14:45:49.837Z,100052.91
2022-10-29T14:48:18.651Z,100064.41
2022-10-29T14:50:49.507Z,100088.25
2022-10-29T14:53:27.480Z,100093.34
2022-10-29T14:55:54.378Z,100096.00
2022-10-29T15:01:00.493Z,100106.03
2022-10-29T15:03:31.254Z,100093.34
2022-10-29T15:06:20.055Z,100115.94
2022-10-29T15:08:57.080Z,100092.78
2022-10-29T15:11:34.471Z,100114.25
2022-10-29T15:14:02.655Z,100121.19
2022-10-29T15:16:30.748Z,100113.75
2022-10-29T15:18:58.700Z,100064.88
2022-10-29T15:21:33.041Z,100098.91
2022-10-29T15:24:06.507Z,100110.66
2022-10-29T15:26:35.800Z,100114.22
2022-10-29T15:29:10.554Z,100096.19
2022-10-29T15:31:49.678Z,100115.94
2022-10-29T15:34:21.406Z,100100.88
2022-10-29T15:36:51.062Z,100090.31
2022-10-29T15:39:29.335Z,100117.31
2022-10-29T15:41:59.488Z,100087.31
2022-10-29T15:44:26.138Z,100108.44
2022-10-29T15:46:58.806Z,100108.34
2022-10-29T15:49:32.452Z,100111.63
2022-10-29T15:52:00.800Z,100112.69
2022-10-29T15:54:28.540Z,100097.03
2022-10-29T15:56:55.318Z,100085.69
2022-10-29T15:59:25.757Z,100121.78
2022-10-29T16:01:52.747Z,100123.09
2022-10-29T16:04:19.645Z,100100.88
2022-10-29T16:06:46.385Z,100133.72
2022-10-29T16:09:20.761Z,100128.78
2022-10-29T16:11:48.373Z,100138.94
2022-10-29T16:14:15.162Z,100112.88
2022-10-29T16:16:41.925Z,100124.69
2022-10-29T16:19:08.722Z,100094.63
2022-10-29T16:21:35.658Z,100124.88
2022-10-29T16:24:02.408Z,100121.72
2022-10-29T16:26:29.631Z,100140.88
2022-10-29T16:28:56.671Z,100122.88
2022-10-29T16:31:28.501Z,100125.91
2022-10-29T16:33:57.946Z,100129.72
2022-10-29T16:36:25.056Z,100139.88
2022-10-29T16:38:51.762Z,100138.78
2022-10-29T16:41:20.052Z,100123.06
2022-10-29T16:43:47.611Z,100126.22
2022-10-29T16:46:15.000Z,100123.97
2022-10-29T16:48:42.181Z,100121.91
2022-10-29T16:51:09.097Z,100127.72
2022-10-29T16:53:35.899Z,100140.41
2022-10-29T16:56:03.429Z,100130.44
2022-10-29T16:58:30.495Z,100138.31
2022-10-29T17:01:05.521Z,100142.94
2022-10-29T17:03:33.319Z,100134.53
2022-10-29T17:06:08.385Z,100161.91
2022-10-29T17:08:36.840Z,100162.72
2022-10-29T17:11:06.457Z,100159.00
2022-10-29T17:13:34.186Z,100131.25
2022-10-29T17:16:00.985Z,100137.22
2022-10-29T17:18:27.825Z,100163.41
2022-10-29T17:20:58.766Z,100153.28
2022-10-29T17:23:26.121Z,100140.09
2022-10-29T17:25:57.575Z,100177.84
2022-10-29T17:28:26.286Z,100153.69
2022-10-29T17:30:52.949Z,100181.81
2022-10-29T17:33:20.197Z,100183.44
2022-10-29T17:35:47.444Z,100158.03
2022-10-29T17:38:14.320Z,100166.56
2022-10-29T17:40:43.752Z,100186.50
2022-10-29T17:43:10.649Z,100168.13
2022-10-29T17:45:37.845Z,100198.94
2022-10-29T17:48:04.997Z,100178.19
2022-10-29T17:50:31.998Z,100178.13
2022-10-29T17:52:58.984Z,100170.91
2022-10-29T17:55:25.931Z,100183.00
2022-10-29T17:57:52.985Z,100171.53
2022-10-29T18:00:19.761Z,100200.22
2022-10-29T18:02:50.705Z,100199.66
2022-10-29T18:05:18.197Z,100200.91
2022-10-29T18:07:44.991Z,100196.56
2022-10-29T18:10:11.831Z,100182.25
2022-10-29T18:12:38.769Z,100199.06
2022-10-29T18:15:05.903Z,100182.50
2022-10-29T18:17:33.938Z,100174.59
2022-10-29T18:20:00.760Z,100206.16
2022-10-29T18:22:28.101Z,100208.91
2022-10-29T18:24:55.033Z,100203.44
2022-10-29T18:27:21.992Z,100190.53
2022-10-29T18:29:48.770Z,100201.81
2022-10-29T18:32:16.041Z,100210.72
2022-10-29T18:34:43.056Z,100198.44
2022-10-29T18:37:10.260Z,100168.66
2022-10-29T18:39:37.099Z,100194.38
2022-10-29T18:42:04.051Z,100208.56
2022-10-29T18:44:31.144Z,100210.84
2022-10-29T18:46:58.149Z,100204.84
2022-10-29T18:49:24.989Z,100209.78
2022-10-29T18:51:53.453Z,100211.91
2022-10-29T18:54:20.428Z,100208.63
2022-10-29T18:56:47.278Z,100170.88
2022-10-29T18:59:14.177Z,100183.22
2022-10-29T19:01:41.614Z,100217.34
2022-10-29T19:04:11.453Z,100198.03
2022-10-29T19:06:38.451Z,100211.41
2022-10-29T19:09:08.605Z,100211.41
2022-10-29T19:11:36.193Z,100214.06
2022-10-29T19:14:06.172Z,100195.97
2022-10-29T19:16:33.598Z,100215.31
2022-10-29T19:21:36.548Z,100200.53
2022-10-29T19:24:04.587Z,100213.28
2022-10-29T19:26:33.572Z,100212.88
2022-10-29T19:29:02.415Z,100214.50
2022-10-29T19:31:31.356Z,100197.28
2022-10-29T19:34:00.826Z,100201.78
2022-10-29T19:36:29.397Z,100208.34
2022-10-29T19:38:56.356Z,100210.44
2022-10-29T19:41:23.608Z,100213.09
2022-10-29T19:43:50.537Z,100185.59
2022-10-29T19:46:24.296Z,100215.16
2022-10-29T19:48:52.621Z,100206.75
2022-10-29T19:51:20.637Z,100215.38
2022-10-29T19:53:48.141Z,100221.97
2022-10-29T19:56:16.065Z,100213.09
2022-10-29T19:58:43.122Z,100221.94
2022-10-29T20:01:18.419Z,100207.97
2022-10-29T20:03:46.419Z,100223.38
2022-10-29T20:06:13.761Z,100209.78
2022-10-29T20:08:40.485Z,100227.47
2022-10-29T20:11:07.559Z,100191.69
2022-10-29T20:13:34.715Z,100198.91
2022-10-29T20:16:10.329Z,100226.25
2022-10-29T20:18:38.263Z,100210.00
2022-10-29T20:23:37.559Z,100231.59
2022-10-29T20:26:04.657Z,100231.59
2022-10-29T20:28:31.420Z,100196.22
2022-10-29T20:31:24.733Z,100212.88
2022-10-29T20:33:52.924Z,100228.09
2022-10-29T20:36:20.690Z,100235.09
2022-10-29T20:38:51.967Z,100240.41
2022-10-29T20:41:19.467Z,100235.88
2022-10-29T20:43:50.517Z,100214.06
2022-10-29T20:46:17.192Z,100233.00
2022-10-29T20:48:43.856Z,100238.75
2022-10-29T20:51:12.084Z,100239.56
2022-10-29T20:53:39.033Z,100252.09
2022-10-29T20:56:08.204Z,100230.91
2022-10-29T20:58:37.763Z,100249.84
2022-10-29T21:01:08.850Z,100244.50
2022-10-29T21:03:36.126Z,100256.81
2022-10-29T21:06:04.830Z,100254.56
2022-10-29T21:08:31.738Z,100238.72
2022-10-29T21:11:00.067Z,100241.38
2022-10-29T21:13:27.787Z,100263.81
2022-10-29T21:15:55.138Z,100233.34
2022-10-29T21:18:22.374Z,100259.88
2022-10-29T21:20:49.496Z,100237.03
2022-10-29T21:23:19.917Z,100265.00
2022-10-29T21:25:53.942Z,100258.19
2022-10-29T21:28:20.806Z,100266.59
2022-10-29T21:30:47.539Z,100245.63
2022-10-29T21:33:14.201Z,100255.53
2022-10-29T21:35:41.039Z,100174.06
2022-10-29T21:38:07.894Z,100262.91
2022-10-29T21:40:34.589Z,100270.13
2022-10-29T21:43:01.278Z,100263.53
2022-10-29T21:45:28.009Z,100232.72
2022-10-29T21:47:54.664Z,100256.97
2022-10-29T21:50:21.345Z,100252.03
2022-10-29T21:52:48.045Z,100254.06
2022-10-29T21:55:14.938Z,100253.44
2022-10-29T21:57:44.843Z,100254.66
2022-10-29T22:00:14.104Z,100248.88
2022-10-29T22:02:40.833Z,100229.94
2022-10-29T22:05:08.131Z,100253.00
2022-10-29T22:07:35.001Z,100243.53
2022-10-29T22:10:02.066Z,100241.84
2022-10-29T22:12:28.874Z,100229.09
2022-10-29T22:14:55.788Z,100231.75
2022-10-29T22:17:22.431Z,100251.28
2022-10-29T22:19:49.923Z,100248.97
2022-10-29T22:22:16.763Z,100250.13
2022-10-29T22:24:43.436Z,100256.06
2022-10-29T22:27:10.310Z,100222.09
2022-10-29T22:29:36.968Z,100207.69
2022-10-29T22:32:05.565Z,100253.97
2022-10-29T22:34:32.293Z,100250.88
2022-10-29T22:36:58.985Z,100257.63
2022-10-29T22:39:26.222Z,100256.41
2022-10-29T22:41:53.266Z,100245.25
2022-10-29T22:44:19.978Z,100256.38
2022-10-29T22:46:46.698Z,100244.34
2022-10-29T22:49:13.427Z,100267.19
2022-10-29T22:51:40.077Z,100238.75
2022-10-29T22:54:06.956Z,100259.53
2022-10-29T22:56:36.167Z,100255.44
2022-10-29T22:59:04.962Z,100258.47
2022-10-29T23:01:38.667Z,100264.19
2022-10-29T23:04:08.876Z,100261.06
2022-10-29T23:06:36.639Z,100263.09
2022-10-29T23:09:03.422Z,100272.34
2022-10-29T23:11:32.201Z,100259.38
2022-10-29T23:14:00.722Z,100263.44
2022-10-29T23:16:30.029Z,100271.22
2022-10-29T23:18:59.781Z,100272.03
2022-10-29T23:21:26.881Z,100270.63
2022-10-29T23:23:54.503Z,100270.81
2022-10-29T23:26:23.131Z,100278.19
2022-10-29T23:28:50.572Z,100286.94
2022-10-29T23:31:22.918Z,100292.00
2022-10-29T23:33:51.842Z,100282.38
2022-10-29T23:36:20.406Z,100278.63
2022-10-29T23:38:47.333Z,100270.59
2022-10-29T23:41:14.095Z,100262.22
2022-10-29T23:43:40.853Z,100275.72
2022-10-29T23:46:07.559Z,100284.28
2022-10-29T23:48:34.315Z,100281.16
2022-10-29T23:51:01.035Z,100279.69
2022-10-29T23:53:27.703Z,100273.56
2022-10-29T23:55:54.396Z,100271.22
2022-10-29T23:58:21.312Z,100253.19
